Time;durP1;ratioP1;P1;durP2;ratioP2;P2;SDS_P1;SDS_P2;PMS_P1;PMS_P2;Temp;Humidity;BMP_temperature;BMP_pressure;BME280_temperature;BME280_humidity;BME280_pressure;Samples;Min_cycle;Max_cycle;Signal;HPM_P1;HPM_P2
2023/10/16 00:01:11;;;;;;;842.13;76.57;;;;;;;;;;4873034;28;21060;-88
2023/10/16 00:03:41;;;;;;;832.60;75.68;;;;;;;;;;4875094;28;20047;-88
2023/10/16 00:06:11;;;;;;;827.55;74.32;;;;;;;;;;4877338;28;20904;-88
2023/10/16 00:08:47;;;;;;;844.42;76.60;;;;;;;;;;4869893;28;21093;-88
2023/10/16 00:11:18;;;;;;;868.20;79.55;;;;;;;;;;4872746;28;21095;-88
2023/10/16 00:13:47;;;;;;;871.00;79.68;;;;;;;;;;4870198;28;20046;-88
2023/10/16 00:16:17;;;;;;;849.35;76.82;;;;;;;;;;4872569;28;20039;-88
2023/10/16 00:18:49;;;;;;;865.05;78.47;;;;;;;;;;4872714;28;20047;-88
2023/10/16 00:21:17;;;;;;;851.88;77.10;;;;;;;;;;4876149;28;20053;-88
2023/10/16 00:23:43;;;;;;;867.03;79.10;;;;;;;;;;4873717;28;20046;-87
2023/10/16 00:26:12;;;;;;;828.10;74.43;;;;;;;;;;4870865;28;20042;-88
2023/10/16 00:28:46;;;;;;;830.45;74.80;;;;;;;;;;4872922;28;20046;-88
2023/10/16 00:31:20;;;;;;;870.45;79.47;;;;;;;;;;4854841;28;20137;-88
2023/10/16 00:33:49;;;;;;;882.92;80.78;;;;;;;;;;4864037;28;20047;-87
2023/10/16 00:36:15;;;;;;;866.28;78.90;;;;;;;;;;4855604;28;20968;-88
2023/10/16 00:38:48;;;;;;;881.38;80.45;;;;;;;;;;4870583;28;20109;-88
2023/10/16 00:43:43;;;;;;;884.20;80.85;;;;;;;;;;4858752;28;21037;-88
2023/10/16 00:46:17;;;;;;;899.30;82.15;;;;;;;;;;4869481;28;20035;-87
2023/10/16 00:48:46;;;;;;;900.17;82.28;;;;;;;;;;4870090;28;20030;-86
2023/10/16 00:51:13;;;;;;;913.40;84.00;;;;;;;;;;4861691;28;20054;-87
2023/10/16 00:54:00;;;;;;;927.55;86.15;;;;;;;;;;4869917;28;20046;-87
2023/10/16 00:56:30;;;;;;;910.50;84.53;;;;;;;;;;4877834;28;20049;-88
2023/10/16 00:58:56;;;;;;;853.10;77.60;;;;;;;;;;4851047;28;20053;-88
2023/10/16 01:01:24;;;;;;;980.75;92.10;;;;;;;;;;4847594;28;20519;-88
2023/10/16 01:03:56;;;;;;;885.65;81.35;;;;;;;;;;4868756;28;20880;-88
2023/10/16 01:06:36;;;;;;;965.80;92.25;;;;;;;;;;4859373;28;20050;-88
2023/10/16 01:09:10;;;;;;;984.03;92.20;;;;;;;;;;4865071;28;20145;-88
2023/10/16 01:11:39;;;;;;;903.50;83.07;;;;;;;;;;4859901;28;20070;-88
2023/10/16 01:14:06;;;;;;;874.47;79.93;;;;;;;;;;4866755;28;20279;-88
2023/10/16 01:16:33;;;;;;;1013.22;96.47;;;;;;;;;;4865725;28;20046;-88
2023/10/16 01:19:01;;;;;;;951.13;88.75;;;;;;;;;;4863426;28;20059;-88
2023/10/16 01:21:28;;;;;;;918.90;87.53;;;;;;;;;;4845964;28;20964;-88
2023/10/16 01:23:55;;;;;;;917.40;84.88;;;;;;;;;;4865090;28;20161;-87
2023/10/16 01:26:24;;;;;;;904.55;83.32;;;;;;;;;;4864472;28;20214;-88
2023/10/16 01:28:51;;;;;;;876.85;79.93;;;;;;;;;;4843324;28;21354;-87
2023/10/16 01:31:19;;;;;;;893.17;81.63;;;;;;;;;;4845990;28;21015;-87
2023/10/16 01:33:46;;;;;;;1034.78;98.72;;;;;;;;;;4862497;28;20043;-88
2023/10/16 01:36:13;;;;;;;904.35;83.18;;;;;;;;;;4862618;28;20053;-88
2023/10/16 01:38:40;;;;;;;977.90;92.45;;;;;;;;;;4856190;28;20055;-88
2023/10/16 01:43:33;;;;;;;1065.22;101.72;;;;;;;;;;4863270;28;20966;-86
2023/10/16 01:46:01;;;;;;;1106.68;107.47;;;;;;;;;;4852545;28;20046;-86
2023/10/16 01:48:28;;;;;;;1025.53;99.10;;;;;;;;;;4856079;28;21121;-86
2023/10/16 01:50:56;;;;;;;908.42;83.78;;;;;;;;;;4856574;28;21225;-86
2023/10/16 01:53:26;;;;;;;952.72;88.32;;;;;;;;;;4845222;28;20939;-86
2023/10/16 01:55:54;;;;;;;914.17;84.93;;;;;;;;;;4857110;28;20058;-86
2023/10/16 01:58:21;;;;;;;890.03;81.72;;;;;;;;;;4869554;28;20039;-87
2023/10/16 02:13:01;;;;;;;32.63;3.53;;;;;;;;;;3314150;26;20051;-55
2023/10/16 02:15:28;;;;;;;69.10;5.85;;;;;;;;;;4963031;28;20062;-56
2023/10/16 02:17:55;;;;;;;23.10;4.00;;;;;;;;;;4983312;28;20551;-55
2023/10/16 02:20:26;;;;;;;18.75;3.15;;;;;;;;;;4958699;28;20053;-57
2023/10/16 02:22:53;;;;;;;21.48;3.65;;;;;;;;;;4960471;28;20078;-56
2023/10/16 02:25:23;;;;;;;19.77;2.47;;;;;;;;;;4982912;28;20402;-56
2023/10/16 02:27:50;;;;;;;25.45;2.65;;;;;;;;;;4958783;28;20082;-56
2023/10/16 02:32:53;;;;;;;25.88;2.55;;;;;;;;;;4964994;28;20074;-57
2023/10/16 02:35:21;;;;;;;17.08;2.65;;;;;;;;;;4989313;28;20047;-55
2023/10/16 02:37:53;;;;;;;18.00;2.50;;;;;;;;;;4964327;28;20038;-56
2023/10/16 02:40:20;;;;;;;20.55;2.80;;;;;;;;;;4983284;28;20046;-57
2023/10/16 02:42:52;;;;;;;21.50;2.95;;;;;;;;;;4983424;28;20066;-60
2023/10/16 02:45:25;;;;;;;26.60;3.38;;;;;;;;;;4965235;28;20078;-56
2023/10/16 02:47:52;;;;;;;19.13;2.17;;;;;;;;;;4984117;28;20054;-56
2023/10/16 02:50:19;;;;;;;27.23;2.58;;;;;;;;;;4963449;28;20050;-55
2023/10/16 02:52:48;;;;;;;16.60;2.05;;;;;;;;;;4962704;28;20046;-55
2023/10/16 02:55:15;;;;;;;22.80;2.55;;;;;;;;;;4942159;28;20141;-56
2023/10/16 02:57:42;;;;;;;35.33;3.33;;;;;;;;;;4962735;28;20046;-55
2023/10/16 03:03:07;;;;;;;15.95;2.20;;;;;;;;;;4940171;28;20057;-55
2023/10/16 03:05:34;;;;;;;29.33;2.83;;;;;;;;;;4956634;28;20059;-56
2023/10/16 03:08:01;;;;;;;26.73;2.40;;;;;;;;;;4978032;28;20070;-57
2023/10/16 03:10:30;;;;;;;32.38;2.80;;;;;;;;;;4962050;28;20038;-56
2023/10/16 03:13:03;;;;;;;23.55;2.65;;;;;;;;;;4962390;28;20084;-56
2023/10/16 03:15:30;;;;;;;77.20;5.70;;;;;;;;;;4979401;28;20051;-56
2023/10/16 03:17:57;;;;;;;29.52;2.90;;;;;;;;;;4963338;28;20079;-57
2023/10/16 03:20:28;;;;;;;21.38;3.00;;;;;;;;;;4982570;28;20046;-55
2023/10/16 03:22:55;;;;;;;6.03;1.55;;;;;;;;;;4961425;28;20133;-55
2023/10/16 03:25:50;;;;;;;21.25;2.80;;;;;;;;;;4964576;28;20081;-56
2023/10/16 03:28:11;;;;;;;20.75;3.13;;;;;;;;;;4976167;28;20046;-54
2023/10/16 03:30:39;;;;;;;46.42;3.92;;;;;;;;;;4962140;28;20055;-53
2023/10/16 03:33:07;;;;;;;19.77;2.58;;;;;;;;;;4980997;28;20066;-56
2023/10/16 03:35:38;;;;;;;33.20;3.67;;;;;;;;;;4990375;28;20046;-54
2023/10/16 03:38:11;;;;;;;23.42;3.13;;;;;;;;;;4961017;28;20058;-54
2023/10/16 03:40:43;;;;;;;34.55;2.90;;;;;;;;;;4964023;28;20455;-54
2023/10/16 03:43:11;;;;;;;18.55;2.35;;;;;;;;;;4960798;28;20054;-55
2023/10/16 03:45:39;;;;;;;46.83;4.18;;;;;;;;;;4961064;28;20476;-57
2023/10/16 03:48:09;;;;;;;15.40;2.55;;;;;;;;;;4980519;28;20067;-53
2023/10/16 03:50:39;;;;;;;28.23;2.85;;;;;;;;;;4979229;28;20072;-56
2023/10/16 03:53:07;;;;;;;13.80;2.75;;;;;;;;;;4982093;28;20046;-57
2023/10/16 03:55:41;;;;;;;29.52;3.03;;;;;;;;;;4962830;28;20058;-55
2023/10/16 03:58:09;;;;;;;16.20;2.00;;;;;;;;;;4966341;28;20532;-54
2023/10/16 04:03:23;;;;;;;31.98;3.00;;;;;;;;;;4962515;28;20051;-54
2023/10/16 04:05:50;;;;;;;15.15;1.88;;;;;;;;;;4964552;28;20050;-57
2023/10/16 04:08:18;;;;;;;31.55;2.88;;;;;;;;;;4980711;28;20133;-58
2023/10/16 04:10:46;;;;;;;26.58;3.55;;;;;;;;;;4965011;28;20042;-56
2023/10/16 04:13:17;;;;;;;14.68;2.03;;;;;;;;;;4962922;28;20452;-57
2023/10/16 04:18:48;;;;;;;22.08;2.30;;;;;;;;;;4962379;28;20090;-53
2023/10/16 04:31:57;;;;;;;19.15;2.67;;;;;;;;;;4966910;28;20057;-53
2023/10/16 04:53:13;;;;;;;18.90;2.90;;;;;;;;;;4977488;28;20030;-58
2023/10/16 05:00:57;;;;;;;31.00;4.07;;;;;;;;;;4966137;28;20042;-58
2023/10/16 05:03:25;;;;;;;;;;;;;;;;;;4968090;28;20046;-58
2023/10/16 05:16:36;;;;;;;21.35;2.50;;;;;;;;;;4965865;28;20408;-58
2023/10/16 05:19:03;;;;;;;16.77;3.00;;;;;;;;;;4964648;28;20046;-58
2023/10/16 06:14:12;;;;;;;22.48;3.45;;;;;;;;;;4977490;28;20122;-58
2023/10/16 06:16:42;;;;;;;55.22;4.75;;;;;;;;;;4963676;28;20078;-57
2023/10/16 06:19:17;;;;;;;37.95;3.72;;;;;;;;;;4966276;28;20042;-59
2023/10/16 06:21:47;;;;;;;53.72;4.28;;;;;;;;;;4982158;28;20046;-58
2023/10/16 06:24:25;;;;;;;32.65;3.40;;;;;;;;;;4967643;28;20066;-58
2023/10/16 06:26:54;;;;;;;45.75;4.00;;;;;;;;;;4981018;28;20514;-58
2023/10/16 06:29:21;;;;;;;25.13;3.40;;;;;;;;;;4964985;28;20093;-57
2023/10/16 06:31:53;;;;;;;39.10;4.55;;;;;;;;;;4943677;28;20496;-56
2023/10/16 06:34:22;;;;;;;23.80;2.90;;;;;;;;;;4964791;28;20050;-58
2023/10/16 06:36:53;;;;;;;66.53;5.38;;;;;;;;;;4963344;28;20428;-59
2023/10/16 06:39:29;;;;;;;13.70;2.47;;;;;;;;;;4984979;28;20138;-59
2023/10/16 06:41:56;;;;;;;32.35;3.72;;;;;;;;;;4959968;28;20055;-56
2023/10/16 06:44:28;;;;;;;19.08;2.50;;;;;;;;;;4983425;28;20090;-57
2023/10/16 06:46:59;;;;;;;25.17;3.33;;;;;;;;;;4962904;28;20136;-58
2023/10/16 06:49:27;;;;;;;18.63;3.00;;;;;;;;;;4960490;28;20570;-57
2023/10/16 06:51:56;;;;;;;22.20;3.55;;;;;;;;;;4982310;28;20046;-57
2023/10/16 06:54:24;;;;;;;36.45;3.47;;;;;;;;;;4964728;28;20046;-59
2023/10/16 06:56:52;;;;;;;32.22;3.83;;;;;;;;;;4982392;28;20077;-57
2023/10/16 06:59:19;;;;;;;25.65;3.10;;;;;;;;;;4963360;28;20035;-58
2023/10/16 07:01:46;;;;;;;17.25;3.13;;;;;;;;;;4980245;28;20049;-57
2023/10/16 07:04:14;;;;;;;15.40;2.35;;;;;;;;;;4961365;28;20042;-57
2023/10/16 07:06:43;;;;;;;43.58;4.80;;;;;;;;;;4963302;28;20057;-58
2023/10/16 07:09:09;;;;;;;25.52;2.92;;;;;;;;;;4963968;28;20113;-59
2023/10/16 07:11:42;;;;;;;25.17;3.22;;;;;;;;;;4982746;28;20050;-58
2023/10/16 07:14:12;;;;;;;19.08;3.75;;;;;;;;;;4963167;28;20046;-57
2023/10/16 07:16:41;;;;;;;32.65;4.22;;;;;;;;;;4982338;28;20074;-58
2023/10/16 07:19:08;;;;;;;34.83;4.65;;;;;;;;;;4944789;28;20066;-57
2023/10/16 07:21:34;;;;;;;51.13;4.85;;;;;;;;;;4979932;28;20069;-58
2023/10/16 07:24:03;;;;;;;21.73;3.65;;;;;;;;;;4981682;28;20043;-57
2023/10/16 07:26:29;;;;;;;19.48;3.72;;;;;;;;;;4978113;28;20046;-58
2023/10/16 07:28:58;;;;;;;28.00;3.72;;;;;;;;;;4980953;28;20081;-57
2023/10/16 07:31:26;;;;;;;16.50;3.25;;;;;;;;;;4963662;28;20102;-58
2023/10/16 07:33:59;;;;;;;37.78;3.80;;;;;;;;;;4963917;28;20045;-58
2023/10/16 07:36:26;;;;;;;64.20;5.63;;;;;;;;;;4982686;28;20101;-58
2023/10/16 07:38:54;;;;;;;28.85;3.75;;;;;;;;;;4957672;28;20075;-59
2023/10/16 07:41:23;;;;;;;29.63;3.70;;;;;;;;;;4955421;28;20054;-58
2023/10/16 07:43:56;;;;;;;29.40;4.38;;;;;;;;;;4962809;28;20042;-57
2023/10/16 07:46:29;;;;;;;29.77;3.92;;;;;;;;;;4982660;28;20038;-58
2023/10/16 07:49:01;;;;;;;43.35;4.38;;;;;;;;;;4960237;28;20117;-61
2023/10/16 07:51:28;;;;;;;53.78;5.30;;;;;;;;;;4963852;28;20043;-60
2023/10/16 07:53:56;;;;;;;39.72;3.95;;;;;;;;;;4982819;28;20051;-57
2023/10/16 07:59:07;;;;;;;15.55;3.22;;;;;;;;;;4969550;28;20038;-58
2023/10/16 08:01:54;;;;;;;42.35;4.10;;;;;;;;;;4984708;28;20130;-57
2023/10/16 08:06:52;;;;;;;27.67;2.90;;;;;;;;;;4970257;28;20047;-58
2023/10/16 08:12:18;;;;;;;27.63;3.10;;;;;;;;;;4941887;29;20052;-58
2023/10/16 08:14:45;;;;;;;15.00;2.95;;;;;;;;;;4945450;29;20066;-57
2023/10/16 08:17:16;;;;;;;24.70;2.83;;;;;;;;;;4941386;29;20140;-57
2023/10/16 08:19:44;;;;;;;47.53;3.92;;;;;;;;;;4927059;29;20049;-58
2023/10/16 08:22:14;;;;;;;18.33;3.42;;;;;;;;;;4928236;29;20130;-57
2023/10/16 08:24:57;;;;;;;61.78;5.15;;;;;;;;;;4929709;29;20449;-58
2023/10/16 08:30:33;;;;;;;40.17;3.80;;;;;;;;;;4942439;29;20455;-57
2023/10/16 08:33:07;;;;;;;26.92;3.40;;;;;;;;;;4921455;29;20047;-57
2023/10/16 08:35:41;;;;;;;14.82;2.10;;;;;;;;;;4925922;29;20063;-58
2023/10/16 08:38:19;;;;;;;22.05;2.53;;;;;;;;;;4929483;29;20079;-57
2023/10/16 08:40:57;;;;;;;21.85;4.30;;;;;;;;;;4926717;29;20058;-58
2023/10/16 08:44:14;;;;;;;17.13;2.08;;;;;;;;;;4932684;29;20066;-58
2023/10/16 08:46:18;;;;;;;25.52;2.88;;;;;;;;;;4932740;29;20075;-58
2023/10/16 08:48:46;;;;;;;45.58;3.80;;;;;;;;;;4953163;28;20488;-55
2023/10/16 08:51:16;;;;;;;25.60;3.00;;;;;;;;;;4983680;28;20488;-57
2023/10/16 08:53:46;;;;;;;35.85;3.33;;;;;;;;;;4982454;28;20042;-57
2023/10/16 08:56:17;;;;;;;19.90;2.78;;;;;;;;;;4981804;28;20480;-58
2023/10/16 08:58:44;;;;;;;39.72;3.92;;;;;;;;;;4967207;28;20477;-56
2023/10/16 09:01:13;;;;;;;30.20;3.10;;;;;;;;;;4982723;28;20068;-57
2023/10/16 09:03:44;;;;;;;68.15;5.50;;;;;;;;;;4979589;28;20129;-58
2023/10/16 09:06:18;;;;;;;37.15;3.63;;;;;;;;;;4982801;28;20385;-57
2023/10/16 09:08:48;;;;;;;16.05;2.03;;;;;;;;;;4946927;28;20520;-58
2023/10/16 09:11:16;;;;;;;24.83;2.58;;;;;;;;;;4984450;28;20385;-57
2023/10/16 09:13:49;;;;;;;21.73;2.63;;;;;;;;;;4981342;28;20051;-58
2023/10/16 09:16:20;;;;;;;31.98;2.83;;;;;;;;;;4985869;28;20472;-56
2023/10/16 09:18:48;;;;;;;25.80;3.33;;;;;;;;;;4982609;28;20035;-58
2023/10/16 09:21:22;;;;;;;21.90;2.13;;;;;;;;;;4983822;28;20053;-56
2023/10/16 09:23:53;;;;;;;20.10;2.60;;;;;;;;;;4984603;28;20415;-57
2023/10/16 09:26:29;;;;;;;32.83;3.60;;;;;;;;;;4947920;28;20046;-58
2023/10/16 09:29:03;;;;;;;24.92;3.60;;;;;;;;;;4991917;28;20117;-57
2023/10/16 09:31:31;;;;;;;18.55;2.60;;;;;;;;;;4965894;28;20046;-58
2023/10/16 09:33:58;;;;;;;18.23;2.05;;;;;;;;;;4982262;28;20039;-57
2023/10/16 09:36:29;;;;;;;19.73;2.22;;;;;;;;;;4968544;28;20412;-59
2023/10/16 09:38:59;;;;;;;26.55;4.07;;;;;;;;;;4983031;28;20078;-57
2023/10/16 09:44:07;;;;;;;22.25;2.40;;;;;;;;;;4949201;28;20407;-57
2023/10/16 09:49:23;;;;;;;24.83;2.30;;;;;;;;;;4964979;28;20066;-57
2023/10/16 09:51:57;;;;;;;28.77;3.58;;;;;;;;;;4982158;28;20034;-57
2023/10/16 09:54:34;;;;;;;60.38;4.82;;;;;;;;;;4979557;28;20178;-58
2023/10/16 09:57:03;;;;;;;30.83;3.08;;;;;;;;;;4966268;28;20568;-58
2023/10/16 09:59:38;;;;;;;19.40;2.90;;;;;;;;;;4981745;28;20049;-57
2023/10/16 10:02:08;;;;;;;16.92;3.05;;;;;;;;;;4997841;28;20093;-57
2023/10/16 10:04:35;;;;;;;25.00;2.55;;;;;;;;;;4976793;28;20050;-57
2023/10/16 10:07:11;;;;;;;30.35;3.55;;;;;;;;;;4982600;28;20050;-57
2023/10/16 10:09:44;;;;;;;58.70;4.93;;;;;;;;;;4982570;28;20439;-58
2023/10/16 10:12:22;;;;;;;32.55;3.58;;;;;;;;;;4947309;28;20476;-54
2023/10/16 10:15:06;;;;;;;23.90;3.40;;;;;;;;;;4966042;28;20138;-58
2023/10/16 10:17:34;;;;;;;18.42;2.63;;;;;;;;;;4997262;28;20043;-57
2023/10/16 10:20:08;;;;;;;16.58;2.50;;;;;;;;;;4982380;28;20476;-57
2023/10/16 10:22:44;;;;;;;36.75;3.47;;;;;;;;;;4981722;28;20050;-57
2023/10/16 10:25:22;;;;;;;32.38;3.10;;;;;;;;;;4982999;28;20039;-57
2023/10/16 10:27:49;;;;;;;39.92;3.83;;;;;;;;;;4996081;28;20503;-60
2023/10/16 10:30:17;;;;;;;14.82;2.22;;;;;;;;;;4983625;28;20512;-59
2023/10/16 10:32:50;;;;;;;10.02;1.77;;;;;;;;;;4970208;28;20472;-58
2023/10/16 10:35:21;;;;;;;48.42;4.43;;;;;;;;;;4942395;28;20054;-59
2023/10/16 10:37:48;;;;;;;16.17;3.47;;;;;;;;;;4980018;28;20695;-58
2023/10/16 10:40:21;;;;;;;30.85;5.05;;;;;;;;;;4966628;28;20046;-58
2023/10/16 10:42:53;;;;;;;23.73;3.50;;;;;;;;;;4978255;28;20134;-57
2023/10/16 10:45:34;;;;;;;20.23;2.78;;;;;;;;;;4953599;28;20047;-58
2023/10/16 10:48:06;;;;;;;14.85;2.00;;;;;;;;;;4982171;28;20043;-59
2023/10/16 10:50:34;;;;;;;21.08;2.15;;;;;;;;;;4957129;28;20042;-58
2023/10/16 10:53:06;;;;;;;20.55;2.67;;;;;;;;;;4964492;28;20097;-58
2023/10/16 10:55:32;;;;;;;19.95;2.30;;;;;;;;;;4963160;28;20532;-58
2023/10/16 10:58:01;;;;;;;28.80;2.72;;;;;;;;;;4963874;28;20051;-58
2023/10/16 11:05:31;;;;;;;16.40;2.25;;;;;;;;;;4978087;28;20038;-59
2023/10/16 11:10:41;;;;;;;31.05;3.03;;;;;;;;;;4960607;28;20113;-57
2023/10/16 11:13:09;;;;;;;30.25;2.95;;;;;;;;;;4963744;28;20070;-60
2023/10/16 11:15:36;;;;;;;46.17;3.67;;;;;;;;;;4980920;28;20129;-59
2023/10/16 11:18:13;;;;;;;18.23;3.75;;;;;;;;;;4965907;28;20038;-58
2023/10/16 11:20:45;;;;;;;18.48;2.33;;;;;;;;;;4995735;28;20046;-58
2023/10/16 11:23:13;;;;;;;21.55;3.13;;;;;;;;;;4980597;28;20054;-58
2023/10/16 11:25:44;;;;;;;27.67;2.63;;;;;;;;;;4964812;28;20408;-59
2023/10/16 11:28:17;;;;;;;31.48;3.35;;;;;;;;;;4978806;28;20049;-58
2023/10/16 11:30:45;;;;;;;54.53;4.28;;;;;;;;;;4980853;28;20054;-58
2023/10/16 11:33:12;;;;;;;28.55;3.22;;;;;;;;;;4979838;28;20062;-58
2023/10/16 11:35:48;;;;;;;8.57;1.77;;;;;;;;;;4963106;28;20051;-57
2023/10/16 11:38:28;;;;;;;25.65;2.65;;;;;;;;;;4979264;28;20045;-59
2023/10/16 11:41:05;;;;;;;18.52;2.65;;;;;;;;;;4979729;28;20046;-59
2023/10/16 11:43:38;;;;;;;23.30;3.40;;;;;;;;;;4959486;28;20035;-58
2023/10/16 11:46:28;;;;;;;17.52;2.58;;;;;;;;;;4962895;28;20067;-59
2023/10/16 11:48:57;;;;;;;26.27;3.13;;;;;;;;;;4979483;28;20043;-59
2023/10/16 11:51:25;;;;;;;31.50;3.13;;;;;;;;;;4963808;28;20485;-59
2023/10/16 11:54:02;;;;;;;18.63;2.05;;;;;;;;;;4947016;28;20389;-59
2023/10/16 11:56:34;;;;;;;21.33;2.35;;;;;;;;;;4960363;28;20045;-59
2023/10/16 11:59:03;;;;;;;22.52;2.22;;;;;;;;;;4961685;28;20408;-59
2023/10/16 12:01:30;;;;;;;21.38;2.90;;;;;;;;;;4959807;28;20121;-61
2023/10/16 12:04:19;;;;;;;20.17;2.95;;;;;;;;;;4972224;28;20043;-59
2023/10/16 12:06:49;;;;;;;40.97;3.45;;;;;;;;;;4963846;28;20047;-59
2023/10/16 12:09:19;;;;;;;26.90;4.22;;;;;;;;;;4965971;28;20119;-58
2023/10/16 12:11:49;;;;;;;34.42;5.20;;;;;;;;;;4962744;28;20050;-57
2023/10/16 12:14:16;;;;;;;25.40;4.35;;;;;;;;;;4994303;28;20113;-59
2023/10/16 12:16:47;;;;;;;22.67;3.90;;;;;;;;;;4961091;28;20055;-59
2023/10/16 12:19:15;;;;;;;30.10;4.50;;;;;;;;;;4980996;28;20060;-58
2023/10/16 12:21:50;;;;;;;65.80;6.65;;;;;;;;;;4981174;28;20093;-58
2023/10/16 12:24:17;;;;;;;29.67;5.50;;;;;;;;;;4961129;28;20062;-59
2023/10/16 12:26:45;;;;;;;24.95;3.65;;;;;;;;;;4965322;28;20137;-57
2023/10/16 12:29:12;;;;;;;35.88;5.82;;;;;;;;;;4960794;28;20104;-58
2023/10/16 12:31:41;;;;;;;32.00;3.60;;;;;;;;;;4979000;28;20042;-58
2023/10/16 12:34:11;;;;;;;20.98;2.75;;;;;;;;;;4980617;28;20038;-59
2023/10/16 12:36:40;;;;;;;49.53;4.25;;;;;;;;;;4980838;28;20050;-59
2023/10/16 12:39:16;;;;;;;21.33;2.70;;;;;;;;;;4966140;28;20137;-58
2023/10/16 12:41:43;;;;;;;14.90;2.10;;;;;;;;;;4980981;28;20042;-59
2023/10/16 12:44:10;;;;;;;20.05;2.78;;;;;;;;;;4979748;28;20050;-60
2023/10/16 12:46:37;;;;;;;26.63;3.10;;;;;;;;;;4968028;28;20047;-59
2023/10/16 12:49:07;;;;;;;32.83;3.03;;;;;;;;;;4980957;28;20098;-59
2023/10/16 12:51:38;;;;;;;49.97;5.40;;;;;;;;;;4980195;28;20087;-60
2023/10/16 12:54:06;;;;;;;22.05;2.28;;;;;;;;;;4968640;28;20043;-60
2023/10/16 12:56:33;;;;;;;25.85;2.40;;;;;;;;;;4999005;28;20125;-59
2023/10/16 12:58:59;;;;;;;27.38;2.72;;;;;;;;;;4985452;28;20043;-59
2023/10/16 13:01:26;;;;;;;27.08;2.58;;;;;;;;;;4962306;28;20125;-59
2023/10/16 13:03:59;;;;;;;20.58;2.22;;;;;;;;;;4982172;28;20362;-58
2023/10/16 13:06:30;;;;;;;19.50;1.95;;;;;;;;;;4981625;28;20050;-58
2023/10/16 13:08:57;;;;;;;12.23;2.03;;;;;;;;;;4956053;28;20499;-58
2023/10/16 13:11:24;;;;;;;35.47;2.97;;;;;;;;;;4964604;28;20049;-58
2023/10/16 13:13:55;;;;;;;18.77;2.08;;;;;;;;;;4984362;28;20066;-58
2023/10/16 13:16:26;;;;;;;36.47;3.22;;;;;;;;;;4986241;28;20046;-58
2023/10/16 13:18:59;;;;;;;26.98;2.50;;;;;;;;;;4983108;28;20101;-58
2023/10/16 13:21:33;;;;;;;23.42;2.78;;;;;;;;;;4966957;28;20053;-58
2023/10/16 13:24:00;;;;;;;30.00;2.58;;;;;;;;;;4968443;28;20104;-59
2023/10/16 13:26:29;;;;;;;32.25;2.53;;;;;;;;;;4982412;28;20035;-60
2023/10/16 13:28:55;;;;;;;20.70;2.22;;;;;;;;;;4964556;28;20050;-58
2023/10/16 13:31:23;;;;;;;12.18;1.88;;;;;;;;;;4966361;28;20137;-58
2023/10/16 13:33:53;;;;;;;32.00;2.83;;;;;;;;;;4965517;28;20492;-59
2023/10/16 13:36:20;;;;;;;22.08;4.90;;;;;;;;;;4982686;28;20113;-61
2023/10/16 13:38:48;;;;;;;21.50;2.15;;;;;;;;;;4982545;28;20400;-58
2023/10/16 13:41:18;;;;;;;15.32;1.77;;;;;;;;;;4961980;28;20058;-58
2023/10/16 13:43:48;;;;;;;15.52;2.08;;;;;;;;;;4967153;28;20059;-58
2023/10/16 13:46:15;;;;;;;21.60;2.70;;;;;;;;;;4976841;28;20047;-57
2023/10/16 13:48:47;;;;;;;96.57;6.75;;;;;;;;;;4981530;28;20092;-58
2023/10/16 13:51:16;;;;;;;6.97;2.13;;;;;;;;;;4966497;28;20055;-58
2023/10/16 13:53:43;;;;;;;25.05;2.40;;;;;;;;;;4965174;28;20864;-58
2023/10/16 13:56:11;;;;;;;23.42;2.70;;;;;;;;;;4966651;28;20045;-58
2023/10/16 13:58:38;;;;;;;34.22;3.63;;;;;;;;;;4981501;28;20138;-58
2023/10/16 14:01:04;;;;;;;29.42;2.67;;;;;;;;;;4973901;28;20425;-58
2023/10/16 14:03:33;;;;;;;21.13;2.60;;;;;;;;;;4984906;28;20046;-60
2023/10/16 14:06:00;;;;;;;23.20;2.72;;;;;;;;;;4984368;28;20070;-59
2023/10/16 14:08:30;;;;;;;18.42;2.60;;;;;;;;;;4967567;28;20047;-59
2023/10/16 14:10:57;;;;;;;28.90;3.13;;;;;;;;;;4982464;28;20038;-58
2023/10/16 14:13:28;;;;;;;23.83;2.53;;;;;;;;;;4964952;28;20085;-58
2023/10/16 14:18:54;;;;;;;33.78;3.13;;;;;;;;;;4943096;29;20047;-58
2023/10/16 14:21:23;;;;;;;22.95;2.92;;;;;;;;;;4929257;29;20052;-59
2023/10/16 14:23:50;;;;;;;29.92;2.80;;;;;;;;;;4940642;29;20075;-59
2023/10/16 14:26:24;;;;;;;20.35;2.78;;;;;;;;;;4944954;29;20545;-58
2023/10/16 14:28:53;;;;;;;16.23;2.83;;;;;;;;;;4942008;29;20059;-57
2023/10/16 14:31:24;;;;;;;21.83;2.50;;;;;;;;;;4941748;29;20051;-58
2023/10/16 14:33:53;;;;;;;40.05;3.75;;;;;;;;;;4925231;29;20051;-58
2023/10/16 14:36:24;;;;;;;24.52;3.78;;;;;;;;;;4943975;29;20060;-58
2023/10/16 14:38:54;;;;;;;30.67;3.60;;;;;;;;;;4925194;29;20057;-58
2023/10/16 14:41:23;;;;;;;23.02;2.92;;;;;;;;;;4938603;29;20134;-58
2023/10/16 14:43:50;;;;;;;26.88;3.40;;;;;;;;;;4938438;29;20071;-58
2023/10/16 14:46:22;;;;;;;28.05;4.00;;;;;;;;;;4942537;29;20137;-59
2023/10/16 14:48:50;;;;;;;76.20;6.22;;;;;;;;;;4939420;28;20199;-58
2023/10/16 14:51:18;;;;;;;19.75;2.90;;;;;;;;;;4940560;28;20047;-58
2023/10/16 14:53:45;;;;;;;24.35;3.55;;;;;;;;;;4944122;28;20059;-57
2023/10/16 14:56:18;;;;;;;22.83;3.78;;;;;;;;;;4979157;28;20050;-58
2023/10/16 14:58:49;;;;;;;39.05;7.00;;;;;;;;;;4977914;28;20047;-59
2023/10/16 15:01:39;;;;;;;24.10;4.05;;;;;;;;;;4964694;28;20094;-58
2023/10/16 15:04:08;;;;;;;35.13;3.90;;;;;;;;;;4978895;28;20500;-58
2023/10/16 15:06:36;;;;;;;61.95;5.78;;;;;;;;;;4980915;28;20038;-58
2023/10/16 15:09:09;;;;;;;23.95;4.18;;;;;;;;;;4979571;28;20046;-58
2023/10/16 15:11:36;;;;;;;38.85;5.20;;;;;;;;;;4974666;28;20061;-57
2023/10/16 15:14:03;;;;;;;27.90;3.67;;;;;;;;;;4964272;28;20049;-58
2023/10/16 15:16:32;;;;;;;19.60;3.10;;;;;;;;;;4961572;28;20050;-58
2023/10/16 15:19:01;;;;;;;29.10;3.63;;;;;;;;;;4959860;28;20035;-59
2023/10/16 15:21:28;;;;;;;29.85;5.55;;;;;;;;;;4981094;28;20144;-58
2023/10/16 15:23:55;;;;;;;34.55;6.35;;;;;;;;;;4977338;28;20054;-58
2023/10/16 15:26:23;;;;;;;23.95;5.75;;;;;;;;;;4965584;28;20125;-58
2023/10/16 15:28:50;;;;;;;28.17;4.55;;;;;;;;;;4962278;28;20098;-59
2023/10/16 15:31:17;;;;;;;88.60;23.25;;;;;;;;;;4966969;28;20059;-57
2023/10/16 15:33:44;;;;;;;63.90;9.20;;;;;;;;;;4963301;28;20052;-58
2023/10/16 15:36:17;;;;;;;36.25;5.20;;;;;;;;;;4962442;28;20047;-58
2023/10/16 15:38:45;;;;;;;50.38;18.00;;;;;;;;;;4968210;28;20054;-58
2023/10/16 15:41:12;;;;;;;54.30;17.30;;;;;;;;;;4975845;28;20097;-58
2023/10/16 15:43:40;;;;;;;44.15;7.93;;;;;;;;;;4977264;28;20042;-58
2023/10/16 15:46:23;;;;;;;43.53;7.03;;;;;;;;;;4977599;28;20039;-58
2023/10/16 15:48:50;;;;;;;106.50;8.32;;;;;;;;;;4962138;28;20066;-59
2023/10/16 15:51:17;;;;;;;38.92;6.57;;;;;;;;;;4982839;28;20061;-58
2023/10/16 15:53:46;;;;;;;25.40;4.82;;;;;;;;;;4981192;28;20048;-58
2023/10/16 15:56:12;;;;;;;45.15;7.72;;;;;;;;;;4980958;28;20070;-59
2023/10/16 15:58:39;;;;;;;23.40;5.55;;;;;;;;;;4976261;28;20452;-58
2023/10/16 16:01:08;;;;;;;35.40;6.30;;;;;;;;;;4961902;28;20047;-59
2023/10/16 16:03:36;;;;;;;54.03;6.55;;;;;;;;;;4980361;28;20066;-61
2023/10/16 16:06:08;;;;;;;55.47;12.63;;;;;;;;;;4967158;28;20057;-58
2023/10/16 16:08:44;;;;;;;35.97;9.25;;;;;;;;;;4976501;28;20125;-59
2023/10/16 16:11:13;;;;;;;44.78;11.63;;;;;;;;;;4978378;28;20039;-60
2023/10/16 16:14:00;;;;;;;49.72;10.30;;;;;;;;;;4959473;28;20051;-59
2023/10/16 16:16:28;;;;;;;46.25;7.18;;;;;;;;;;4985805;28;20074;-59
2023/10/16 16:18:55;;;;;;;55.38;10.75;;;;;;;;;;4983332;28;20055;-59
2023/10/16 16:21:21;;;;;;;37.25;7.88;;;;;;;;;;4966075;28;20061;-58
2023/10/16 16:23:49;;;;;;;42.40;7.40;;;;;;;;;;4984958;28;20070;-58
2023/10/16 16:26:16;;;;;;;38.53;7.35;;;;;;;;;;4980542;28;20436;-58
2023/10/16 16:28:45;;;;;;;41.53;9.93;;;;;;;;;;4985230;28;20070;-58
2023/10/16 16:31:15;;;;;;;78.28;20.23;;;;;;;;;;4996683;28;20050;-59
2023/10/16 16:33:43;;;;;;;77.22;13.05;;;;;;;;;;4981827;28;20400;-59
2023/10/16 16:36:11;;;;;;;45.72;9.85;;;;;;;;;;4965408;28;20451;-59
2023/10/16 16:38:39;;;;;;;46.45;9.68;;;;;;;;;;4966721;28;20081;-58
2023/10/16 16:41:06;;;;;;;57.47;11.35;;;;;;;;;;4983539;28;20130;-60
2023/10/16 16:43:33;;;;;;;64.25;14.75;;;;;;;;;;4982322;28;20464;-59
2023/10/16 16:46:00;;;;;;;54.53;11.68;;;;;;;;;;4965644;28;20051;-58
2023/10/16 16:48:27;;;;;;;44.13;9.63;;;;;;;;;;4983813;28;20145;-58
2023/10/16 16:50:56;;;;;;;42.97;10.23;;;;;;;;;;4962819;28;20133;-59
2023/10/16 16:53:22;;;;;;;56.67;13.07;;;;;;;;;;4984158;28;20046;-58
2023/10/16 16:55:49;;;;;;;57.83;13.80;;;;;;;;;;4983096;28;20043;-58
2023/10/16 16:58:17;;;;;;;54.92;14.38;;;;;;;;;;4965732;28;20667;-59
2023/10/16 17:00:44;;;;;;;81.15;14.05;;;;;;;;;;4965042;28;20055;-57
2023/10/16 17:03:10;;;;;;;55.38;13.60;;;;;;;;;;4966421;28;20475;-59
2023/10/16 17:05:37;;;;;;;82.90;20.83;;;;;;;;;;4977096;28;20105;-59
2023/10/16 17:08:05;;;;;;;74.55;16.60;;;;;;;;;;4994338;28;20034;-58
2023/10/16 17:10:32;;;;;;;51.53;14.32;;;;;;;;;;4965326;28;20049;-59
2023/10/16 17:12:59;;;;;;;75.18;16.10;;;;;;;;;;4964095;28;20489;-58
2023/10/16 17:15:25;;;;;;;118.38;30.17;;;;;;;;;;4967551;28;20051;-59